createdAt,value
2022-12-24T00:00:16.067Z,23.00
2022-12-24T00:02:43.834Z,19.23
2022-12-24T00:05:15.934Z,19.73
2022-12-24T00:07:44.008Z,26.17
2022-12-24T00:10:14.233Z,21.23
2022-12-24T00:12:43.934Z,21.83
2022-12-24T00:15:11.931Z,23.70
2022-12-24T00:17:39.704Z,22.58
2022-12-24T00:20:08.509Z,27.40
2022-12-24T00:22:40.774Z,17.27
2022-12-24T00:25:08.029Z,25.13
2022-12-24T00:27:35.742Z,26.60
2022-12-24T00:30:04.047Z,25.55
2022-12-24T00:32:31.987Z,22.58
2022-12-24T00:35:03.818Z,24.52
2022-12-24T00:37:31.734Z,23.90
2022-12-24T00:39:59.707Z,21.23
2022-12-24T00:42:27.711Z,26.95
2022-12-24T00:44:55.862Z,18.35
2022-12-24T00:47:23.746Z,21.70
2022-12-24T00:49:51.963Z,22.30
2022-12-24T00:52:19.836Z,22.67
2022-12-24T00:54:47.789Z,27.00
2022-12-24T00:57:15.780Z,23.58
2022-12-24T00:59:47.807Z,25.45
2022-12-24T01:02:16.149Z,20.27
2022-12-24T01:05:02.349Z,20.08
2022-12-24T01:07:29.748Z,27.52
2022-12-24T01:09:57.752Z,20.88
2022-12-24T01:12:35.106Z,20.17
2022-12-24T01:15:01.987Z,32.65
2022-12-24T01:17:32.318Z,22.90
2022-12-24T01:20:04.857Z,19.52
2022-12-24T01:22:31.952Z,23.17
2022-12-24T01:25:04.401Z,24.63
2022-12-24T01:30:31.027Z,24.35
2022-12-24T01:32:58.073Z,24.35
2022-12-24T01:35:31.918Z,24.05
2022-12-24T01:37:59.906Z,19.55
2022-12-24T01:40:46.529Z,20.73
2022-12-24T01:49:14.645Z,30.80
2022-12-24T01:52:06.813Z,25.08
2022-12-24T01:54:44.112Z,23.02
2022-12-24T01:57:40.335Z,31.08
2022-12-24T02:00:11.522Z,23.67
2022-12-24T02:02:41.816Z,20.80
2022-12-24T02:05:24.462Z,20.83
2022-12-24T02:08:05.748Z,16.48
2022-12-24T02:10:33.902Z,19.63
2022-12-24T02:13:03.104Z,16.42
2022-12-24T02:15:52.073Z,17.92
2022-12-24T02:18:39.093Z,19.00
2022-12-24T02:21:33.147Z,19.60
2022-12-24T02:24:41.648Z,22.40
2022-12-24T02:30:42.044Z,20.67
2022-12-24T02:33:20.146Z,20.42
2022-12-24T02:36:09.786Z,15.13
2022-12-24T02:38:44.592Z,14.35
2022-12-24T02:42:04.198Z,21.60
2022-12-24T02:44:37.987Z,17.52
2022-12-24T02:47:08.598Z,13.55
2022-12-24T02:52:47.663Z,19.27
2022-12-24T02:55:40.418Z,22.50
2022-12-24T02:58:42.058Z,20.27
2022-12-24T03:01:21.798Z,13.98
2022-12-24T03:04:00.827Z,17.05
2022-12-24T03:07:05.487Z,13.52
2022-12-24T03:09:47.931Z,15.27
2022-12-24T03:15:39.533Z,15.82
2022-12-24T03:18:12.071Z,14.57
2022-12-24T03:20:47.801Z,17.25
2022-12-24T03:23:15.904Z,18.95
2022-12-24T03:25:45.600Z,14.82
2022-12-24T03:28:16.729Z,13.95
2022-12-24T03:30:46.539Z,12.23
2022-12-24T03:33:18.940Z,13.80
2022-12-24T03:35:51.399Z,12.20
2022-12-24T03:38:19.869Z,15.50
2022-12-24T03:40:47.852Z,16.02
2022-12-24T03:43:15.891Z,12.23
2022-12-24T03:45:43.834Z,15.93
2022-12-24T03:48:11.864Z,11.93
2022-12-24T03:50:39.743Z,14.15
2022-12-24T03:53:31.846Z,10.85
2022-12-24T03:55:59.947Z,15.98
2022-12-24T03:58:53.757Z,9.65
2022-12-24T04:01:21.743Z,18.45
2022-12-24T04:03:49.836Z,15.93
2022-12-24T04:06:22.051Z,10.77
2022-12-24T04:08:54.736Z,16.42
2022-12-24T04:11:46.664Z,16.40
2022-12-24T04:14:13.723Z,13.48
2022-12-24T04:16:41.760Z,12.45
2022-12-24T04:22:27.796Z,10.90
2022-12-24T04:24:55.711Z,12.07
2022-12-24T04:27:29.963Z,10.57
2022-12-24T04:30:02.815Z,12.90
2022-12-24T04:32:29.739Z,19.05
2022-12-24T04:34:57.707Z,11.85
2022-12-24T04:37:25.699Z,11.90
2022-12-24T04:39:57.666Z,16.45
2022-12-24T04:42:25.714Z,13.98
2022-12-24T04:44:58.682Z,12.23
2022-12-24T04:47:25.709Z,13.60
2022-12-24T04:49:58.679Z,12.98
2022-12-24T04:52:25.794Z,14.65
2022-12-24T04:54:58.753Z,12.50
2022-12-24T04:57:25.693Z,15.23
2022-12-24T04:59:53.701Z,16.02
2022-12-24T05:02:26.029Z,12.38
2022-12-24T05:04:58.733Z,14.50
2022-12-24T05:07:25.722Z,13.90
2022-12-24T05:09:53.763Z,11.98
2022-12-24T05:12:28.714Z,16.60
2022-12-24T05:14:55.774Z,16.65
2022-12-24T05:17:23.895Z,14.70
2022-12-24T05:19:51.684Z,17.50
2022-12-24T05:22:38.252Z,11.90
2022-12-24T05:25:30.343Z,12.95
2022-12-24T05:27:57.743Z,15.48
2022-12-24T05:30:25.784Z,13.60
2022-12-24T05:33:17.795Z,11.30
2022-12-24T05:35:50.757Z,13.52
2022-12-24T05:38:17.752Z,11.55
2022-12-24T05:43:39.796Z,13.98
2022-12-24T05:46:10.876Z,14.48
2022-12-24T05:48:37.880Z,11.43
2022-12-24T05:51:07.933Z,12.25
2022-12-24T05:54:02.045Z,14.25
2022-12-24T05:56:29.825Z,14.93
2022-12-24T05:58:58.082Z,13.10
2022-12-24T06:01:26.088Z,13.35
2022-12-24T06:03:54.048Z,10.07
2022-12-24T06:06:24.000Z,10.93
2022-12-24T06:08:58.468Z,11.90
2022-12-24T06:11:27.792Z,15.68
2022-12-24T06:13:56.279Z,9.60
2022-12-24T06:16:25.655Z,9.98
2022-12-24T06:18:54.130Z,10.65
2022-12-24T06:21:22.103Z,10.70
2022-12-24T06:23:53.718Z,8.95
2022-12-24T06:26:22.919Z,9.63
2022-12-24T06:31:43.834Z,10.43
2022-12-24T06:34:35.918Z,10.68
2022-12-24T06:37:03.946Z,11.85
2022-12-24T06:39:32.012Z,12.07
2022-12-24T06:44:51.730Z,11.45
2022-12-24T06:47:19.682Z,9.55
2022-12-24T06:50:17.350Z,8.45
2022-12-24T06:52:45.709Z,10.35
2022-12-24T06:55:13.722Z,8.88
2022-12-24T06:57:41.875Z,8.68
2022-12-24T07:00:11.235Z,8.77
2022-12-24T07:02:43.882Z,10.65
2022-12-24T07:05:12.956Z,9.93
2022-12-24T07:07:41.868Z,7.00
2022-12-24T07:10:14.887Z,7.25
2022-12-24T07:12:42.303Z,5.88
2022-12-24T07:15:11.219Z,7.05
2022-12-24T07:17:40.199Z,7.47
2022-12-24T07:20:11.407Z,6.82
2022-12-24T07:25:31.720Z,5.90
2022-12-24T07:27:59.693Z,7.45
2022-12-24T07:30:32.719Z,7.68
2022-12-24T07:32:59.730Z,8.90
2022-12-24T07:35:27.771Z,5.60
2022-12-24T07:37:55.706Z,5.68
2022-12-24T07:40:23.723Z,6.63
2022-12-24T07:42:51.669Z,7.15
2022-12-24T07:45:24.743Z,7.95
2022-12-24T07:47:51.697Z,8.18
2022-12-24T07:50:19.710Z,6.15
2022-12-24T07:52:47.717Z,7.85
2022-12-24T07:55:20.866Z,8.23
2022-12-24T07:57:47.715Z,6.93
2022-12-24T08:00:16.017Z,7.13
2022-12-24T08:02:43.824Z,5.15
2022-12-24T08:05:11.935Z,8.20
2022-12-24T08:07:39.712Z,4.47
2022-12-24T08:10:11.763Z,6.82
2022-12-24T08:12:39.716Z,8.55
2022-12-24T08:15:07.978Z,7.55
2022-12-24T08:17:39.749Z,7.35
2022-12-24T08:20:08.625Z,7.05
2022-12-24T08:22:35.760Z,7.72
2022-12-24T08:28:25.918Z,6.90
2022-12-24T08:31:02.239Z,5.88
2022-12-24T08:33:29.844Z,6.55
2022-12-24T08:35:58.146Z,7.75
2022-12-24T08:38:25.712Z,7.65
2022-12-24T08:40:54.898Z,8.23
2022-12-24T08:43:22.719Z,7.95
2022-12-24T08:48:46.747Z,7.85
2022-12-24T08:51:13.815Z,8.60
2022-12-24T08:53:42.028Z,7.50
2022-12-24T08:56:10.691Z,6.88
2022-12-24T08:58:38.248Z,8.07
2022-12-24T09:01:17.386Z,9.73
2022-12-24T09:03:46.196Z,5.43
2022-12-24T09:06:14.501Z,8.52
2022-12-24T09:08:41.793Z,8.40
2022-12-24T09:11:15.156Z,5.85
2022-12-24T09:13:47.848Z,9.45
2022-12-24T09:16:21.209Z,9.48
2022-12-24T09:18:49.698Z,7.43
2022-12-24T09:21:18.710Z,7.15
2022-12-24T09:23:48.108Z,7.18
2022-12-24T09:26:21.636Z,8.27
2022-12-24T09:28:50.673Z,6.60
2022-12-24T09:31:18.707Z,8.00
2022-12-24T09:40:00.765Z,8.82
2022-12-24T09:42:56.028Z,7.13
2022-12-24T09:45:38.531Z,7.30
2022-12-24T09:48:33.587Z,9.90
2022-12-24T09:51:09.990Z,6.97
2022-12-24T09:53:50.854Z,9.20
2022-12-24T09:56:21.453Z,10.13
2022-12-24T09:58:53.786Z,7.15
2022-12-24T10:01:21.839Z,8.45
2022-12-24T10:07:12.381Z,8.48
2022-12-24T10:09:53.866Z,6.75
2022-12-24T10:12:49.918Z,6.97
2022-12-24T10:16:07.927Z,8.05
2022-12-24T10:19:02.529Z,11.45
2022-12-24T10:21:47.987Z,7.32
2022-12-24T10:24:33.867Z,10.10
2022-12-24T10:27:33.861Z,8.82
2022-12-24T10:30:20.872Z,8.30
2022-12-24T10:32:50.807Z,7.20
2022-12-24T10:35:20.296Z,8.60
2022-12-24T10:38:13.802Z,6.90
2022-12-24T10:43:45.875Z,7.45
2022-12-24T10:47:02.892Z,9.13
2022-12-24T10:49:45.332Z,10.88
2022-12-24T10:52:25.441Z,8.65
2022-12-24T10:55:22.130Z,7.75
2022-12-24T10:58:07.857Z,8.55
2022-12-24T11:01:04.861Z,8.43
2022-12-24T11:03:34.825Z,9.52
2022-12-24T11:09:25.642Z,8.55
2022-12-24T11:14:48.591Z,8.38
2022-12-24T11:17:23.356Z,8.57
2022-12-24T11:19:51.743Z,8.73
2022-12-24T11:22:49.467Z,11.07
2022-12-24T11:25:25.034Z,8.38
2022-12-24T11:31:19.498Z,11.20
2022-12-24T11:33:51.126Z,10.52
2022-12-24T11:36:22.487Z,11.15
2022-12-24T11:39:24.650Z,10.85
2022-12-24T11:41:57.728Z,10.48
2022-12-24T11:44:27.388Z,10.73
2022-12-24T11:46:58.825Z,8.52
2022-12-24T11:49:34.629Z,9.20
2022-12-24T11:52:13.961Z,9.85
2022-12-24T11:55:15.646Z,11.57
2022-12-24T11:57:52.352Z,10.38
2022-12-24T12:00:46.990Z,10.73
2022-12-24T12:03:30.558Z,12.93
2022-12-24T12:06:01.353Z,10.32
2022-12-24T12:08:35.783Z,11.00
2022-12-24T12:11:12.147Z,13.50
2022-12-24T12:13:46.903Z,12.05
2022-12-24T12:16:25.698Z,13.65
2022-12-24T12:19:05.036Z,11.05
2022-12-24T12:21:45.306Z,15.00
2022-12-24T12:24:32.556Z,22.98
2022-12-24T12:27:29.218Z,15.65
2022-12-24T12:30:07.141Z,15.05
2022-12-24T12:33:19.632Z,19.05
2022-12-24T12:35:49.086Z,15.52
2022-12-24T12:38:34.058Z,13.07
2022-12-24T12:41:20.014Z,12.35
2022-12-24T12:44:19.899Z,14.30
2022-12-24T12:47:23.335Z,16.17
2022-12-24T12:50:03.266Z,13.73
2022-12-24T12:53:01.462Z,14.77
2022-12-24T12:55:49.169Z,11.80
2022-12-24T12:58:27.443Z,11.93
2022-12-24T13:01:06.378Z,12.07
2022-12-24T13:03:52.536Z,16.23
2022-12-24T13:06:54.832Z,13.07
2022-12-24T13:09:37.454Z,13.43
2022-12-24T13:12:32.381Z,13.48
2022-12-24T13:15:02.493Z,17.27
2022-12-24T13:17:54.280Z,14.43
2022-12-24T13:20:38.570Z,19.83
2022-12-24T13:23:23.753Z,15.70
2022-12-24T13:25:58.728Z,15.60
2022-12-24T13:28:25.718Z,13.57
2022-12-24T13:31:24.701Z,18.23
2022-12-24T13:33:54.192Z,16.00
2022-12-24T13:36:22.154Z,16.50
2022-12-24T13:39:19.129Z,17.23
2022-12-24T13:41:50.574Z,21.48
2022-12-24T13:44:20.675Z,22.15
2022-12-24T13:46:47.703Z,26.52
2022-12-24T13:49:31.700Z,24.92
2022-12-24T13:52:12.024Z,21.38
2022-12-24T13:57:53.960Z,26.67
2022-12-24T14:00:21.664Z,23.33
2022-12-24T14:02:57.968Z,25.92
2022-12-24T14:08:47.203Z,26.67
2022-12-24T14:11:21.203Z,28.95
2022-12-24T14:13:52.385Z,25.60
2022-12-24T14:16:23.402Z,28.40
2022-12-24T14:19:10.200Z,21.88
2022-12-24T14:24:41.564Z,21.67
2022-12-24T14:27:19.210Z,28.13
2022-12-24T14:30:07.448Z,25.05
2022-12-24T14:32:39.983Z,17.48
2022-12-24T14:35:38.195Z,22.52
2022-12-24T14:38:30.833Z,28.23
2022-12-24T14:44:32.433Z,26.27
2022-12-24T14:47:52.549Z,25.77
2022-12-24T14:54:11.507Z,24.77
2022-12-24T14:59:31.712Z,25.05
2022-12-24T15:02:42.075Z,23.00
2022-12-24T15:05:24.534Z,21.00
2022-12-24T15:08:03.372Z,28.35
2022-12-24T15:10:41.557Z,21.25
2022-12-24T15:13:32.695Z,26.63
2022-12-24T15:16:07.605Z,28.90
2022-12-24T15:18:41.728Z,24.23
2022-12-24T15:21:42.419Z,21.08
2022-12-24T15:24:28.308Z,24.10
2022-12-24T15:27:01.404Z,21.30
2022-12-24T15:29:32.467Z,19.98
2022-12-24T15:32:09.055Z,25.27
2022-12-24T15:34:39.776Z,21.85
2022-12-24T15:37:21.722Z,27.52
2022-12-24T15:40:02.548Z,28.45
2022-12-24T15:42:34.971Z,25.60
2022-12-24T15:45:06.383Z,20.17
2022-12-24T15:47:39.643Z,24.33
2022-12-24T15:50:33.693Z,29.80
2022-12-24T15:53:41.289Z,28.35
2022-12-24T15:56:38.524Z,22.50
2022-12-24T15:59:28.588Z,32.95
2022-12-24T16:01:55.976Z,23.08
2022-12-24T16:08:02.593Z,31.40
2022-12-24T16:10:29.963Z,26.08
2022-12-24T16:13:02.914Z,27.77
2022-12-24T16:15:29.864Z,31.48
2022-12-24T16:17:57.890Z,24.65
2022-12-24T16:20:25.800Z,24.20
2022-12-24T16:22:54.017Z,29.92
2022-12-24T16:25:27.953Z,24.55
2022-12-24T16:28:23.195Z,42.63
2022-12-24T16:31:28.251Z,45.28
2022-12-24T16:33:57.868Z,36.08
2022-12-24T16:36:26.055Z,37.75
2022-12-24T16:39:29.017Z,28.67
2022-12-24T16:42:17.120Z,31.35
2022-12-24T16:44:44.676Z,28.38
2022-12-24T16:47:24.777Z,23.98
2022-12-24T16:49:51.835Z,32.55
2022-12-24T16:52:26.202Z,33.65
2022-12-24T16:54:53.764Z,25.67
2022-12-24T16:57:46.483Z,18.88
2022-12-24T17:00:18.327Z,21.77
2022-12-24T17:02:46.910Z,23.67
2022-12-24T17:05:13.962Z,28.00
2022-12-24T17:07:43.908Z,19.73
2022-12-24T17:10:18.833Z,32.92
2022-12-24T17:12:45.771Z,37.75
2022-12-24T17:15:13.859Z,29.30
2022-12-24T17:17:41.714Z,26.40
2022-12-24T17:20:10.629Z,26.83
2022-12-24T17:22:38.250Z,19.85
2022-12-24T17:25:06.774Z,24.40
2022-12-24T17:27:58.708Z,22.92
2022-12-24T17:30:25.736Z,40.55
2022-12-24T17:32:53.769Z,36.22
2022-12-24T17:35:21.695Z,35.15
2022-12-24T17:37:54.752Z,36.45
2022-12-24T17:40:21.705Z,32.70
2022-12-24T17:46:22.322Z,29.80
2022-12-24T17:48:51.266Z,37.33
2022-12-24T17:54:14.157Z,37.10
2022-12-24T17:56:41.749Z,37.97
2022-12-24T17:59:09.787Z,23.20
2022-12-24T18:01:37.774Z,21.58
2022-12-24T18:04:06.566Z,31.70
2022-12-24T18:06:34.296Z,21.65
2022-12-24T18:09:01.716Z,24.60
2022-12-24T18:11:32.991Z,30.17
2022-12-24T18:14:01.230Z,21.38
2022-12-24T18:22:19.740Z,23.33
2022-12-24T18:24:51.727Z,41.20
2022-12-24T18:27:19.736Z,25.70
2022-12-24T18:29:47.750Z,23.63
2022-12-24T18:32:16.918Z,26.05
2022-12-24T18:34:43.833Z,19.30
2022-12-24T18:37:11.749Z,38.60
2022-12-24T18:40:06.784Z,29.27
2022-12-24T18:42:33.832Z,27.40
2022-12-24T18:45:01.868Z,30.38
2022-12-24T18:47:34.789Z,21.48
2022-12-24T18:50:01.735Z,19.33
2022-12-24T18:52:32.362Z,19.60
2022-12-24T18:54:59.724Z,29.42
2022-12-24T18:57:27.862Z,23.30
2022-12-24T18:59:55.883Z,20.58
2022-12-24T19:02:23.919Z,23.85
2022-12-24T19:04:51.709Z,19.92
2022-12-24T19:07:19.702Z,29.50
2022-12-24T19:09:48.465Z,22.35
2022-12-24T19:12:16.692Z,16.70
2022-12-24T19:14:43.858Z,17.80
2022-12-24T19:17:11.755Z,30.77
2022-12-24T19:19:41.712Z,22.95
2022-12-24T19:22:09.794Z,20.50
2022-12-24T19:24:37.719Z,16.33
2022-12-24T19:27:05.731Z,24.92
2022-12-24T19:29:38.776Z,24.25
2022-12-24T19:32:05.776Z,18.83
2022-12-24T19:34:38.816Z,25.55
2022-12-24T19:37:36.723Z,26.30
2022-12-24T19:40:04.194Z,19.05
2022-12-24T19:42:31.728Z,32.25
2022-12-24T19:44:59.799Z,21.38
2022-12-24T19:47:32.776Z,13.98
2022-12-24T19:49:59.769Z,18.48
2022-12-24T19:58:11.789Z,22.35
2022-12-24T20:00:39.803Z,17.27
2022-12-24T20:03:07.912Z,26.13
2022-12-24T20:05:35.866Z,18.25
2022-12-24T20:08:03.911Z,20.30
2022-12-24T20:10:58.368Z,19.77
2022-12-24T20:13:35.507Z,18.92
2022-12-24T20:16:16.676Z,11.35
2022-12-24T20:18:48.985Z,14.27
2022-12-24T20:21:16.062Z,15.15
2022-12-24T20:23:43.919Z,11.93
2022-12-24T20:26:14.355Z,20.58
2022-12-24T20:28:42.817Z,15.40
2022-12-24T20:31:28.052Z,14.07
2022-12-24T20:36:25.738Z,14.57
2022-12-24T20:38:58.564Z,17.25
2022-12-24T20:41:33.911Z,12.00
2022-12-24T20:44:02.024Z,24.40
2022-12-24T20:46:31.029Z,17.00
2022-12-24T20:48:58.287Z,17.25
2022-12-24T20:51:31.766Z,11.68
2022-12-24T20:54:01.883Z,12.85
2022-12-24T20:56:33.732Z,12.73
2022-12-24T20:59:02.286Z,18.10
2022-12-24T21:01:30.456Z,15.63
2022-12-24T21:04:04.415Z,17.42
2022-12-24T21:06:33.400Z,15.85
2022-12-24T21:09:03.201Z,14.85
2022-12-24T21:11:50.526Z,26.20
2022-12-24T21:14:20.925Z,21.05
2022-12-24T21:16:50.469Z,15.52
2022-12-24T21:19:23.361Z,17.88
2022-12-24T21:21:51.899Z,17.73
2022-12-24T21:24:19.775Z,22.98
2022-12-24T21:26:47.875Z,24.08
2022-12-24T21:29:15.799Z,16.80
2022-12-24T21:31:43.945Z,21.88
2022-12-24T21:34:15.806Z,14.50
2022-12-24T21:36:45.784Z,18.63
2022-12-24T21:39:13.915Z,16.50
2022-12-24T21:41:41.888Z,18.05
2022-12-24T21:44:09.747Z,14.70
2022-12-24T21:46:37.789Z,7.97
2022-12-24T21:49:24.498Z,9.18
2022-12-24T21:51:51.734Z,11.63
2022-12-24T21:54:31.204Z,13.20
2022-12-24T21:57:23.895Z,13.90
2022-12-24T21:59:53.572Z,15.25
2022-12-24T22:02:27.580Z,10.35
2022-12-24T22:05:00.709Z,19.20
2022-12-24T22:07:46.869Z,21.10
2022-12-24T22:10:33.458Z,15.52
2022-12-24T22:13:06.226Z,19.20
2022-12-24T22:15:55.712Z,18.70
2022-12-24T22:18:25.560Z,20.45
2022-12-24T22:21:02.536Z,20.23
2022-12-24T22:23:41.954Z,17.85
2022-12-24T22:26:17.724Z,13.07
2022-12-24T22:28:45.933Z,13.52
2022-12-24T22:31:23.264Z,13.25
2022-12-24T22:34:15.868Z,12.38
2022-12-24T22:36:50.707Z,13.95
2022-12-24T22:39:17.871Z,7.10
2022-12-24T22:41:48.046Z,8.00
2022-12-24T22:44:16.064Z,12.20
2022-12-24T22:46:44.102Z,16.13
2022-12-24T22:49:11.981Z,9.93
2022-12-24T22:52:05.056Z,8.52
2022-12-24T22:54:37.225Z,10.07
2022-12-24T22:57:05.758Z,13.43
2022-12-24T22:59:33.802Z,14.52
2022-12-24T23:02:09.937Z,12.90
2022-12-24T23:04:44.894Z,13.60
2022-12-24T23:10:04.040Z,20.08
2022-12-24T23:12:50.374Z,14.57
2022-12-24T23:15:43.971Z,18.63
2022-12-24T23:18:11.930Z,16.15
2022-12-24T23:20:43.267Z,20.08
2022-12-24T23:23:14.322Z,15.23
2022-12-24T23:25:42.245Z,15.60
2022-12-24T23:28:10.135Z,9.90
2022-12-24T23:30:42.907Z,12.15
2022-12-24T23:33:09.925Z,18.05
2022-12-24T23:35:37.812Z,13.48
2022-12-24T23:38:09.876Z,16.13
2022-12-24T23:40:37.730Z,10.18
2022-12-24T23:43:10.796Z,11.18
2022-12-24T23:45:37.766Z,11.77
2022-12-24T23:48:05.944Z,12.50
2022-12-24T23:50:33.780Z,11.77
2022-12-24T23:53:02.144Z,14.15
2022-12-24T23:55:34.770Z,11.10
2022-12-24T23:58:08.029Z,16.63
